sensor_id;sensor_type;location;lat;lon;timestamp;pressure;altitude;pressure_sealevel;temperature;humidity
58644;BME280;44411;49.994;8.660;2022-10-31T00:01:30;100570.72;;;10.29;100.00
58644;BME280;44411;49.994;8.660;2022-10-31T00:03:56;100581.38;;;10.26;100.00
58644;BME280;44411;49.994;8.660;2022-10-31T00:06:22;100580.28;;;10.27;100.00
58644;BME280;44411;49.994;8.660;2022-10-31T00:08:52;100576.25;;;10.14;100.00
58644;BME280;44411;49.994;8.660;2022-10-31T00:11:18;100573.50;;;10.14;100.00
58644;BME280;44411;49.994;8.660;2022-10-31T00:13:43;100578.97;;;10.09;100.00
58644;BME280;44411;49.994;8.660;2022-10-31T00:16:23;100589.88;;;10.09;100.00
58644;BME280;44411;49.994;8.660;2022-10-31T00:18:54;100587.16;;;10.14;100.00
58644;BME280;44411;49.994;8.660;2022-10-31T00:21:20;100566.47;;;9.92;100.00
58644;BME280;44411;49.994;8.660;2022-10-31T00:23:46;100584.44;;;10.04;100.00
58644;BME280;44411;49.994;8.660;2022-10-31T00:26:12;100587.16;;;10.09;100.00
58644;BME280;44411;49.994;8.660;2022-10-31T00:28:37;100577.34;;;9.97;100.00
58644;BME280;44411;49.994;8.660;2022-10-31T00:31:05;100573.28;;;9.90;100.00
58644;BME280;44411;49.994;8.660;2022-10-31T00:33:34;100567.28;;;9.83;100.00
58644;BME280;44411;49.994;8.660;2022-10-31T00:36:00;100588.78;;;9.89;100.00
58644;BME280;44411;49.994;8.660;2022-10-31T00:38:25;100586.63;;;9.91;100.00
58644;BME280;44411;49.994;8.660;2022-10-31T00:40:51;100590.13;;;10.12;100.00
58644;BME280;44411;49.994;8.660;2022-10-31T00:43:16;100580.63;;;9.94;100.00
58644;BME280;44411;49.994;8.660;2022-10-31T00:45:42;100593.44;;;9.94;100.00
58644;BME280;44411;49.994;8.660;2022-10-31T00:48:08;100599.69;;;9.89;100.00
58644;BME280;44411;49.994;8.660;2022-10-31T00:50:34;100593.72;;;9.92;100.00
58644;BME280;44411;49.994;8.660;2022-10-31T00:53:00;100591.56;;;9.84;100.00
58644;BME280;44411;49.994;8.660;2022-10-31T00:55:25;100579.28;;;9.71;100.00
58644;BME280;44411;49.994;8.660;2022-10-31T00:57:50;100592.09;;;9.76;100.00
58644;BME280;44411;49.994;8.660;2022-10-31T07:03:08;100547.81;;;8.76;100.00
58644;BME280;44411;49.994;8.660;2022-10-31T07:05:34;100540.22;;;8.73;100.00
58644;BME280;44411;49.994;8.660;2022-10-31T07:08:02;100562.06;;;8.99;100.00
58644;BME280;44411;49.994;8.660;2022-10-31T07:10:30;100560.44;;;9.03;100.00
58644;BME280;44411;49.994;8.660;2022-10-31T07:12:56;100561.25;;;9.09;100.00
58644;BME280;44411;49.994;8.660;2022-10-31T07:15:23;100551.19;;;9.14;100.00
58644;BME280;44411;49.994;8.660;2022-10-31T07:17:49;100541.94;;;9.15;100.00
58644;BME280;44411;49.994;8.660;2022-10-31T07:20:15;100560.72;;;9.27;100.00
58644;BME280;44411;49.994;8.660;2022-10-31T07:22:40;100562.09;;;9.35;100.00
58644;BME280;44411;49.994;8.660;2022-10-31T07:25:06;100563.75;;;9.41;100.00
58644;BME280;44411;49.994;8.660;2022-10-31T07:27:37;100564.84;;;9.50;99.90
58644;BME280;44411;49.994;8.660;2022-10-31T07:30:04;100570.56;;;9.54;99.77
58644;BME280;44411;49.994;8.660;2022-10-31T07:32:46;100574.66;;;9.61;100.00
58644;BME280;44411;49.994;8.660;2022-10-31T07:35:15;100574.66;;;9.67;99.65
58644;BME280;44411;49.994;8.660;2022-10-31T07:37:41;100577.38;;;9.72;99.56
58644;BME280;44411;49.994;8.660;2022-10-31T07:40:08;100576.28;;;9.78;99.61
58644;BME280;44411;49.994;8.660;2022-10-31T07:42:44;100578.44;;;9.91;100.00
58644;BME280;44411;49.994;8.660;2022-10-31T07:45:12;100569.19;;;9.97;99.32
58644;BME280;44411;49.994;8.660;2022-10-31T07:47:46;100545.72;;;9.91;99.09
58644;BME280;44411;49.994;8.660;2022-10-31T07:50:14;100571.91;;;10.08;99.29
58644;BME280;44411;49.994;8.660;2022-10-31T07:52:40;100576.22;;;10.19;99.04
58644;BME280;44411;49.994;8.660;2022-10-31T07:55:06;100567.22;;;10.24;98.65
58644;BME280;44411;49.994;8.660;2022-10-31T07:57:32;100581.94;;;10.33;98.46
58644;BME280;44411;49.994;8.660;2022-10-31T07:59:57;100572.38;;;10.41;98.22
58644;BME280;44411;49.994;8.660;2022-10-31T08:02:23;100574.53;;;10.49;97.83
58644;BME280;44411;49.994;8.660;2022-10-31T08:04:51;100563.34;;;10.55;97.66
58644;BME280;44411;49.994;8.660;2022-10-31T08:07:22;100579.38;;;10.62;96.86
58644;BME280;44411;49.994;8.660;2022-10-31T08:09:48;100571.75;;;10.64;97.41
58644;BME280;44411;49.994;8.660;2022-10-31T08:12:13;100574.75;;;10.68;96.98
58644;BME280;44411;49.994;8.660;2022-10-31T08:14:38;100561.66;;;10.65;96.86
58644;BME280;44411;49.994;8.660;2022-10-31T08:17:04;100571.16;;;10.72;96.85
58644;BME280;44411;49.994;8.660;2022-10-31T08:19:29;100574.97;;;10.76;96.80
58644;BME280;44411;49.994;8.660;2022-10-31T08:21:54;100563.22;;;10.76;96.93
58644;BME280;44411;49.994;8.660;2022-10-31T08:24:23;100569.25;;;10.73;96.17
58644;BME280;44411;49.994;8.660;2022-10-31T08:26:48;100572.50;;;10.75;96.52
58644;BME280;44411;49.994;8.660;2022-10-31T08:29:14;100562.44;;;10.75;97.11
58644;BME280;44411;49.994;8.660;2022-10-31T08:31:40;100558.84;;;10.80;96.21
58644;BME280;44411;49.994;8.660;2022-10-31T08:34:32;100555.56;;;10.78;96.08
58644;BME280;44411;49.994;8.660;2022-10-31T08:37:03;100561.56;;;10.80;95.43
58644;BME280;44411;49.994;8.660;2022-10-31T08:39:28;100551.50;;;10.81;95.39
58644;BME280;44411;49.994;8.660;2022-10-31T08:41:53;100560.75;;;10.85;95.36
58644;BME280;44411;49.994;8.660;2022-10-31T08:44:18;100559.59;;;10.91;95.66
58644;BME280;44411;49.994;8.660;2022-10-31T08:46:44;100558.78;;;10.90;94.98
58644;BME280;44411;49.994;8.660;2022-10-31T08:49:09;100547.06;;;10.90;94.59
58644;BME280;44411;49.994;8.660;2022-10-31T08:51:34;100548.66;;;10.96;95.21
58644;BME280;44411;49.994;8.660;2022-10-31T08:54:00;100545.13;;;10.95;94.63
58644;BME280;44411;49.994;8.660;2022-10-31T08:56:25;100550.84;;;10.99;94.54
58644;BME280;44411;49.994;8.660;2022-10-31T08:58:52;100549.19;;;10.98;94.19
58644;BME280;44411;49.994;8.660;2022-10-31T09:01:18;100551.91;;;11.03;94.60
58644;BME280;44411;49.994;8.660;2022-10-31T09:03:43;100541.50;;;11.05;94.47
58644;BME280;44411;49.994;8.660;2022-10-31T09:06:08;100545.00;;;11.11;94.95
58644;BME280;44411;49.994;8.660;2022-10-31T09:08:34;100548.00;;;11.14;94.19
58644;BME280;44411;49.994;8.660;2022-10-31T09:11:00;100541.44;;;11.16;94.21
58644;BME280;44411;49.994;8.660;2022-10-31T09:13:26;100544.19;;;11.16;94.33
58644;BME280;44411;49.994;8.660;2022-10-31T09:15:52;100549.59;;;11.21;94.36
58644;BME280;44411;49.994;8.660;2022-10-31T09:18:20;100541.56;;;11.34;94.69
58644;BME280;44411;49.994;8.660;2022-10-31T09:20:47;100536.59;;;11.42;94.73
58644;BME280;44411;49.994;8.660;2022-10-31T09:23:18;100528.59;;;11.50;94.28
58644;BME280;44411;49.994;8.660;2022-10-31T09:25:44;100530.16;;;11.62;94.04
58644;BME280;44411;49.994;8.660;2022-10-31T09:28:11;100532.59;;;11.63;93.88
58644;BME280;44411;49.994;8.660;2022-10-31T09:30:38;100523.19;;;11.75;94.30
58644;BME280;44411;49.994;8.660;2022-10-31T09:33:06;100523.91;;;11.85;93.70
58644;BME280;44411;49.994;8.660;2022-10-31T09:35:32;100522.69;;;12.02;94.04
58644;BME280;44411;49.994;8.660;2022-10-31T09:40:47;100520.03;;;12.21;92.69
58644;BME280;44411;49.994;8.660;2022-10-31T09:45:56;100514.19;;;12.52;92.83
58644;BME280;44411;49.994;8.660;2022-10-31T09:48:45;100516.53;;;12.58;91.16
58644;BME280;44411;49.994;8.660;2022-10-31T09:51:25;100517.91;;;12.61;91.63
58644;BME280;44411;49.994;8.660;2022-10-31T09:56:37;100516.72;;;12.86;90.26
58644;BME280;44411;49.994;8.660;2022-10-31T09:59:06;100521.53;;;12.94;90.17
58644;BME280;44411;49.994;8.660;2022-10-31T10:06:54;100512.19;;;13.33;89.92
58644;BME280;44411;49.994;8.660;2022-10-31T10:09:22;100510.81;;;13.50;89.98
58644;BME280;44411;49.994;8.660;2022-10-31T10:17:36;100504.75;;;13.53;88.84
58644;BME280;44411;49.994;8.660;2022-10-31T10:23:03;100488.56;;;13.70;87.57
58644;BME280;44411;49.994;8.660;2022-10-31T10:25:44;100482.88;;;13.80;88.17
58644;BME280;44411;49.994;8.660;2022-10-31T10:28:22;100499.75;;;13.88;86.61
58644;BME280;44411;49.994;8.660;2022-10-31T10:31:13;100490.91;;;13.91;86.59
58644;BME280;44411;49.994;8.660;2022-10-31T10:33:41;100492.16;;;14.12;86.60
58644;BME280;44411;49.994;8.660;2022-10-31T10:36:18;100496.28;;;14.10;86.23
58644;BME280;44411;49.994;8.660;2022-10-31T10:38:55;100482.09;;;14.21;86.49
58644;BME280;44411;49.994;8.660;2022-10-31T10:41:26;100483.94;;;14.26;85.88
58644;BME280;44411;49.994;8.660;2022-10-31T10:43:53;100477.81;;;14.43;85.21
58644;BME280;44411;49.994;8.660;2022-10-31T10:46:25;100475.75;;;14.49;84.61
58644;BME280;44411;49.994;8.660;2022-10-31T10:59:39;100454.63;;;15.31;82.49
58644;BME280;44411;49.994;8.660;2022-10-31T11:02:19;100442.34;;;15.28;81.45
58644;BME280;44411;49.994;8.660;2022-10-31T11:04:50;100437.88;;;15.41;80.21
58644;BME280;44411;49.994;8.660;2022-10-31T11:07:16;100444.44;;;15.31;80.99
58644;BME280;44411;49.994;8.660;2022-10-31T11:09:41;100438.19;;;15.40;80.77
58644;BME280;44411;49.994;8.660;2022-10-31T11:12:16;100423.50;;;15.44;80.65
58644;BME280;44411;49.994;8.660;2022-10-31T11:14:49;100429.59;;;15.64;80.37
58644;BME280;44411;49.994;8.660;2022-10-31T11:17:31;100429.44;;;15.69;81.15
58644;BME280;44411;49.994;8.660;2022-10-31T11:20:24;100426.69;;;16.00;79.02
58644;BME280;44411;49.994;8.660;2022-10-31T11:23:00;100420.88;;;16.10;77.71
58644;BME280;44411;49.994;8.660;2022-10-31T11:25:27;100421.25;;;16.35;77.80
58644;BME280;44411;49.994;8.660;2022-10-31T11:28:18;100415.44;;;16.54;76.77
58644;BME280;44411;49.994;8.660;2022-10-31T11:31:05;100408.63;;;16.60;77.02
58644;BME280;44411;49.994;8.660;2022-10-31T11:33:33;100407.50;;;16.79;75.70
58644;BME280;44411;49.994;8.660;2022-10-31T11:36:01;100408.50;;;16.74;75.40
58644;BME280;44411;49.994;8.660;2022-10-31T11:38:35;100405.41;;;16.93;74.58
58644;BME280;44411;49.994;8.660;2022-10-31T11:41:43;100399.97;;;17.32;75.01
58644;BME280;44411;49.994;8.660;2022-10-31T11:44:21;100390.59;;;17.33;73.67
58644;BME280;44411;49.994;8.660;2022-10-31T11:46:50;100383.59;;;17.35;73.84
58644;BME280;44411;49.994;8.660;2022-10-31T11:51:52;100378.22;;;17.39;72.70
58644;BME280;44411;49.994;8.660;2022-10-31T11:54:41;100366.97;;;17.53;73.07
58644;BME280;44411;49.994;8.660;2022-10-31T11:57:25;100369.91;;;17.48;73.05
58644;BME280;44411;49.994;8.660;2022-10-31T11:59:53;100365.00;;;17.62;72.54
58644;BME280;44411;49.994;8.660;2022-10-31T12:02:20;100363.72;;;17.59;72.72
58644;BME280;44411;49.994;8.660;2022-10-31T12:05:00;100358.13;;;17.68;71.12
58644;BME280;44411;49.994;8.660;2022-10-31T12:07:26;100359.53;;;17.83;71.41
58644;BME280;44411;49.994;8.660;2022-10-31T12:09:51;100356.88;;;17.95;71.58
58644;BME280;44411;49.994;8.660;2022-10-31T12:12:26;100354.22;;;18.08;71.06
58644;BME280;44411;49.994;8.660;2022-10-31T12:18:03;100345.56;;;17.88;70.58
58644;BME280;44411;49.994;8.660;2022-10-31T12:23:17;100335.56;;;18.05;71.97
58644;BME280;44411;49.994;8.660;2022-10-31T12:28:44;100342.22;;;18.03;70.15
58644;BME280;44411;49.994;8.660;2022-10-31T12:39:06;100336.19;;;18.31;70.49
58644;BME280;44411;49.994;8.660;2022-10-31T12:44:06;100338.50;;;17.70;70.63
58644;BME280;44411;49.994;8.660;2022-10-31T12:52:25;100318.31;;;17.87;71.93
58644;BME280;44411;49.994;8.660;2022-10-31T12:57:44;100280.97;;;18.10;71.22
58644;BME280;44411;49.994;8.660;2022-10-31T13:00:16;100281.44;;;18.12;71.26
58644;BME280;44411;49.994;8.660;2022-10-31T13:03:28;100271.44;;;18.20;71.28
58644;BME280;44411;49.994;8.660;2022-10-31T13:05:46;100265.31;;;18.14;70.37
58644;BME280;44411;49.994;8.660;2022-10-31T13:08:20;100264.78;;;18.00;70.96
58644;BME280;44411;49.994;8.660;2022-10-31T13:11:16;100255.38;;;18.01;71.83
58644;BME280;44411;49.994;8.660;2022-10-31T13:13:59;100246.81;;;17.94;72.04
58644;BME280;44411;49.994;8.660;2022-10-31T13:16:30;100242.84;;;18.03;72.31
58644;BME280;44411;49.994;8.660;2022-10-31T13:19:02;100238.81;;;18.01;71.38
58644;BME280;44411;49.994;8.660;2022-10-31T13:21:36;100239.47;;;17.98;70.90
58644;BME280;44411;49.994;8.660;2022-10-31T13:24:07;100244.38;;;17.92;71.85
58644;BME280;44411;49.994;8.660;2022-10-31T13:26:42;100234.66;;;17.86;71.73
58644;BME280;44411;49.994;8.660;2022-10-31T13:29:17;100240.03;;;17.82;70.89
58644;BME280;44411;49.994;8.660;2022-10-31T13:31:44;100233.75;;;17.73;71.99
58644;BME280;44411;49.994;8.660;2022-10-31T13:34:19;100225.06;;;17.62;72.72
58644;BME280;44411;49.994;8.660;2022-10-31T13:39:50;100217.81;;;17.79;71.80
58644;BME280;44411;49.994;8.660;2022-10-31T13:42:49;100213.19;;;17.71;72.52
58644;BME280;44411;49.994;8.660;2022-10-31T13:45:19;100218.41;;;17.63;73.40
58644;BME280;44411;49.994;8.660;2022-10-31T13:50:41;100221.13;;;17.42;72.91
58644;BME280;44411;49.994;8.660;2022-10-31T13:53:20;100222.34;;;17.33;74.31
58644;BME280;44411;49.994;8.660;2022-10-31T13:56:01;100214.44;;;17.22;73.84
58644;BME280;44411;49.994;8.660;2022-10-31T13:58:31;100214.97;;;17.16;75.31
58644;BME280;44411;49.994;8.660;2022-10-31T14:01:16;100209.03;;;17.05;74.91
58644;BME280;44411;49.994;8.660;2022-10-31T14:03:46;100198.38;;;16.95;75.59
58644;BME280;44411;49.994;8.660;2022-10-31T14:06:13;100193.03;;;16.89;76.84
58644;BME280;44411;49.994;8.660;2022-10-31T14:08:47;100198.06;;;16.87;76.17
58644;BME280;44411;49.994;8.660;2022-10-31T14:11:24;100190.16;;;16.77;76.82
58644;BME280;44411;49.994;8.660;2022-10-31T14:13:53;100186.75;;;16.72;76.64
58644;BME280;44411;49.994;8.660;2022-10-31T14:16:29;100184.53;;;16.65;77.02
58644;BME280;44411;49.994;8.660;2022-10-31T14:19:06;100189.19;;;16.64;77.44
58644;BME280;44411;49.994;8.660;2022-10-31T14:21:41;100177.38;;;16.64;77.58
58644;BME280;44411;49.994;8.660;2022-10-31T14:24:32;100174.16;;;16.62;77.50
58644;BME280;44411;49.994;8.660;2022-10-31T14:27:45;100174.16;;;16.62;77.10
58644;BME280;44411;49.994;8.660;2022-10-31T14:29:46;100171.16;;;16.84;76.92
58644;BME280;44411;49.994;8.660;2022-10-31T14:34:43;100177.63;;;17.69;73.88
58644;BME280;44411;49.994;8.660;2022-10-31T14:43:39;100207.28;;;17.81;70.87
58644;BME280;44411;49.994;8.660;2022-10-31T14:48:54;100198.00;;;18.19;69.96
58644;BME280;44411;49.994;8.660;2022-10-31T14:51:42;100198.44;;;18.88;67.81
58644;BME280;44411;49.994;8.660;2022-10-31T14:54:14;100195.59;;;18.51;68.20
58644;BME280;44411;49.994;8.660;2022-10-31T14:56:48;100190.09;;;18.30;68.61
58644;BME280;44411;49.994;8.660;2022-10-31T14:59:15;100197.84;;;18.36;68.59
58644;BME280;44411;49.994;8.660;2022-10-31T15:01:53;100210.47;;;17.41;71.40
58644;BME280;44411;49.994;8.660;2022-10-31T15:04:23;100207.47;;;17.25;72.05
58644;BME280;44411;49.994;8.660;2022-10-31T15:06:52;100199.91;;;17.13;73.30
58644;BME280;44411;49.994;8.660;2022-10-31T15:09:23;100194.38;;;17.13;73.00
58644;BME280;44411;49.994;8.660;2022-10-31T15:11:49;100194.47;;;16.96;73.41
58644;BME280;44411;49.994;8.660;2022-10-31T15:14:43;100183.50;;;16.78;75.12
58644;BME280;44411;49.994;8.660;2022-10-31T15:17:11;100175.34;;;16.43;76.15
58644;BME280;44411;49.994;8.660;2022-10-31T15:19:37;100170.03;;;16.21;77.17
58644;BME280;44411;49.994;8.660;2022-10-31T15:22:03;100179.13;;;16.12;76.00
58644;BME280;44411;49.994;8.660;2022-10-31T15:24:38;100180.94;;;16.08;77.55
58644;BME280;44411;49.994;8.660;2022-10-31T15:27:04;100172.34;;;16.01;77.00
58644;BME280;44411;49.994;8.660;2022-10-31T15:29:30;100174.16;;;15.88;78.33
58644;BME280;44411;49.994;8.660;2022-10-31T15:31:58;100169.59;;;15.75;79.22
58644;BME280;44411;49.994;8.660;2022-10-31T15:34:37;100164.88;;;15.67;79.94
58644;BME280;44411;49.994;8.660;2022-10-31T15:37:04;100162.13;;;15.67;80.05
58644;BME280;44411;49.994;8.660;2022-10-31T15:39:29;100162.94;;;15.67;80.16
58644;BME280;44411;49.994;8.660;2022-10-31T15:41:56;100163.13;;;15.80;79.62
58644;BME280;44411;49.994;8.660;2022-10-31T15:44:28;100152.72;;;15.68;80.61
58644;BME280;44411;49.994;8.660;2022-10-31T15:52:22;100155.97;;;15.52;80.27
58644;BME280;44411;49.994;8.660;2022-10-31T15:54:52;100150.16;;;15.45;82.24
58644;BME280;44411;49.994;8.660;2022-10-31T15:57:19;100137.69;;;15.30;81.58
58644;BME280;44411;49.994;8.660;2022-10-31T15:59:47;100134.44;;;15.20;83.07
58644;BME280;44411;49.994;8.660;2022-10-31T16:02:17;100135.38;;;15.15;83.20
58644;BME280;44411;49.994;8.660;2022-10-31T16:04:49;100140.53;;;15.08;84.09
58644;BME280;44411;49.994;8.660;2022-10-31T16:07:17;100133.59;;;15.02;84.36
58644;BME280;44411;49.994;8.660;2022-10-31T16:12:15;100114.63;;;14.91;83.58
58644;BME280;44411;49.994;8.660;2022-10-31T16:14:41;100111.41;;;14.89;83.86
58644;BME280;44411;49.994;8.660;2022-10-31T16:17:11;100101.06;;;14.86;84.45
58644;BME280;44411;49.994;8.660;2022-10-31T16:19:48;100078.75;;;14.79;84.82
58644;BME280;44411;49.994;8.660;2022-10-31T16:22:21;100080.53;;;14.84;85.10
58644;BME280;44411;49.994;8.660;2022-10-31T16:24:55;100060.66;;;14.87;84.37
58644;BME280;44411;49.994;8.660;2022-10-31T16:27:27;100058.56;;;14.84;84.51
58644;BME280;44411;49.994;8.660;2022-10-31T16:29:55;100014.59;;;14.84;85.22
58644;BME280;44411;49.994;8.660;2022-10-31T16:37:30;100004.25;;;14.81;84.84
58644;BME280;44411;49.994;8.660;2022-10-31T16:39:55;100004.06;;;14.77;85.21
58644;BME280;44411;49.994;8.660;2022-10-31T16:42:20;99976.94;;;14.84;84.41
58644;BME280;44411;49.994;8.660;2022-10-31T16:44:47;99948.34;;;14.85;84.31
58644;BME280;44411;49.994;8.660;2022-10-31T16:47:14;99943.50;;;14.82;84.48
58644;BME280;44411;49.994;8.660;2022-10-31T16:49:41;99973.38;;;14.75;84.70
58644;BME280;44411;49.994;8.660;2022-10-31T16:52:07;100018.78;;;14.72;85.29
58644;BME280;44411;49.994;8.660;2022-10-31T16:54:32;100010.09;;;14.79;84.14
58644;BME280;44411;49.994;8.660;2022-10-31T16:56:59;99995.03;;;14.68;84.58
58644;BME280;44411;49.994;8.660;2022-10-31T16:59:26;100001.63;;;14.58;84.76
58644;BME280;44411;49.994;8.660;2022-10-31T17:01:52;100014.25;;;14.59;85.03
58644;BME280;44411;49.994;8.660;2022-10-31T17:04:17;100019.03;;;14.53;85.60
58644;BME280;44411;49.994;8.660;2022-10-31T17:06:43;100028.09;;;14.54;85.30
58644;BME280;44411;49.994;8.660;2022-10-31T17:09:08;100042.44;;;14.51;85.14
58644;BME280;44411;49.994;8.660;2022-10-31T17:11:34;100040.50;;;14.51;84.92
58644;BME280;44411;49.994;8.660;2022-10-31T17:14:00;100025.44;;;14.40;85.29
58644;BME280;44411;49.994;8.660;2022-10-31T17:16:26;100036.63;;;14.52;84.97
58644;BME280;44411;49.994;8.660;2022-10-31T17:18:51;100057.13;;;14.86;83.38
58644;BME280;44411;49.994;8.660;2022-10-31T17:21:23;100064.09;;;15.10;82.07
58644;BME280;44411;49.994;8.660;2022-10-31T17:23:50;100064.09;;;15.01;82.42
58644;BME280;44411;49.994;8.660;2022-10-31T17:26:16;100070.00;;;14.77;82.97
58644;BME280;44411;49.994;8.660;2022-10-31T17:28:42;100088.56;;;14.71;83.63
58644;BME280;44411;49.994;8.660;2022-10-31T17:31:19;100103.31;;;14.75;83.62
58644;BME280;44411;49.994;8.660;2022-10-31T17:33:44;100088.56;;;14.63;84.37
58644;BME280;44411;49.994;8.660;2022-10-31T17:36:10;100075.56;;;14.54;84.64
58644;BME280;44411;49.994;8.660;2022-10-31T17:38:37;100044.81;;;14.35;85.28
58644;BME280;44411;49.994;8.660;2022-10-31T17:41:06;100036.84;;;14.16;86.71
58644;BME280;44411;49.994;8.660;2022-10-31T17:43:31;100033.91;;;14.12;86.79
58644;BME280;44411;49.994;8.660;2022-10-31T17:45:59;100056.03;;;14.16;86.49
58644;BME280;44411;49.994;8.660;2022-10-31T17:48:28;100075.75;;;14.18;86.46
58644;BME280;44411;49.994;8.660;2022-10-31T17:50:53;100060.31;;;14.31;86.50
58644;BME280;44411;49.994;8.660;2022-10-31T17:53:19;100050.09;;;14.23;85.81
58644;BME280;44411;49.994;8.660;2022-10-31T17:55:44;100044.25;;;14.15;86.10
58644;BME280;44411;49.994;8.660;2022-10-31T17:58:11;100027.56;;;14.03;86.17
58644;BME280;44411;49.994;8.660;2022-10-31T18:00:38;100018.81;;;13.92;87.10
58644;BME280;44411;49.994;8.660;2022-10-31T18:03:05;100032.59;;;13.78;87.61
58644;BME280;44411;49.994;8.660;2022-10-31T18:05:31;100037.03;;;13.66;87.97
58644;BME280;44411;49.994;8.660;2022-10-31T18:07:56;100023.09;;;13.53;87.84
58644;BME280;44411;49.994;8.660;2022-10-31T18:10:21;100022.38;;;13.39;87.61
58644;BME280;44411;49.994;8.660;2022-10-31T18:12:47;100018.50;;;13.26;89.31
58644;BME280;44411;49.994;8.660;2022-10-31T18:15:13;100027.06;;;13.24;89.95
58644;BME280;44411;49.994;8.660;2022-10-31T18:17:39;100002.88;;;13.27;89.68
58644;BME280;44411;49.994;8.660;2022-10-31T18:20:05;100007.50;;;13.17;90.17
58644;BME280;44411;49.994;8.660;2022-10-31T18:22:30;100016.63;;;13.13;88.94
58644;BME280;44411;49.994;8.660;2022-10-31T18:24:55;100017.16;;;13.60;88.88
58644;BME280;44411;49.994;8.660;2022-10-31T18:27:21;100018.22;;;13.73;88.47
58644;BME280;44411;49.994;8.660;2022-10-31T18:29:46;100016.44;;;13.77;88.15
58644;BME280;44411;49.994;8.660;2022-10-31T18:32:11;100015.00;;;13.48;89.25
58644;BME280;44411;49.994;8.660;2022-10-31T18:34:37;100020.41;;;13.39;90.22
58644;BME280;44411;49.994;8.660;2022-10-31T18:37:02;100023.16;;;13.39;90.06
58644;BME280;44411;49.994;8.660;2022-10-31T18:39:27;100016.72;;;13.21;90.09
58644;BME280;44411;49.994;8.660;2022-10-31T18:41:53;100011.84;;;13.18;91.24
58644;BME280;44411;49.994;8.660;2022-10-31T18:44:19;100009.84;;;13.10;91.85
58644;BME280;44411;49.994;8.660;2022-10-31T18:46:44;100009.97;;;13.05;90.90
58644;BME280;44411;49.994;8.660;2022-10-31T18:49:10;100012.72;;;12.91;90.19
58644;BME280;44411;49.994;8.660;2022-10-31T18:51:35;100022.59;;;12.92;92.82
58644;BME280;44411;49.994;8.660;2022-10-31T18:54:00;100024.31;;;12.88;91.89
58644;BME280;44411;49.994;8.660;2022-10-31T18:56:27;100022.91;;;12.77;92.75
58644;BME280;44411;49.994;8.660;2022-10-31T18:58:53;100024.84;;;12.76;90.83
58644;BME280;44411;49.994;8.660;2022-10-31T19:01:21;100029.63;;;12.71;91.85
58644;BME280;44411;49.994;8.660;2022-10-31T19:03:52;100036.72;;;12.72;92.08
58644;BME280;44411;49.994;8.660;2022-10-31T19:06:18;100035.69;;;12.67;93.31
58644;BME280;44411;49.994;8.660;2022-10-31T19:08:43;100032.56;;;12.60;92.58
58644;BME280;44411;49.994;8.660;2022-10-31T19:11:11;100047.78;;;12.53;93.31
58644;BME280;44411;49.994;8.660;2022-10-31T19:13:38;100049.31;;;12.45;93.94
58644;BME280;44411;49.994;8.660;2022-10-31T19:16:09;100048.91;;;12.38;94.60
58644;BME280;44411;49.994;8.660;2022-10-31T19:18:35;100041.81;;;12.23;93.87
58644;BME280;44411;49.994;8.660;2022-10-31T19:21:11;100044.00;;;12.07;94.48
58644;BME280;44411;49.994;8.660;2022-10-31T19:23:37;100058.78;;;12.06;94.13
58644;BME280;44411;49.994;8.660;2022-10-31T19:26:03;100056.25;;;11.96;93.56
58644;BME280;44411;49.994;8.660;2022-10-31T19:28:30;100059.94;;;11.86;92.91
58644;BME280;44411;49.994;8.660;2022-10-31T19:30:56;100054.75;;;12.03;94.28
58644;BME280;44411;49.994;8.660;2022-10-31T19:33:22;100059.00;;;12.09;94.92
58644;BME280;44411;49.994;8.660;2022-10-31T19:35:50;100051.00;;;12.13;94.35
58644;BME280;44411;49.994;8.660;2022-10-31T19:38:16;100058.56;;;12.02;94.52
58644;BME280;44411;49.994;8.660;2022-10-31T19:40:41;100069.84;;;12.01;94.16
58644;BME280;44411;49.994;8.660;2022-10-31T19:43:07;100068.28;;;11.95;95.49
58644;BME280;44411;49.994;8.660;2022-10-31T19:45:33;100051.38;;;11.93;95.25
58644;BME280;44411;49.994;8.660;2022-10-31T19:47:58;100033.09;;;11.74;94.07
58644;BME280;44411;49.994;8.660;2022-10-31T19:50:24;100056.47;;;11.80;94.43
58644;BME280;44411;49.994;8.660;2022-10-31T19:52:49;100054.03;;;11.79;95.89
58644;BME280;44411;49.994;8.660;2022-10-31T19:55:14;100044.53;;;11.76;95.96
58644;BME280;44411;49.994;8.660;2022-10-31T19:57:40;100046.75;;;11.74;94.60
58644;BME280;44411;49.994;8.660;2022-10-31T20:00:06;100058.13;;;11.81;96.01
58644;BME280;44411;49.994;8.660;2022-10-31T20:02:31;100054.66;;;11.76;95.60
58644;BME280;44411;49.994;8.660;2022-10-31T20:04:56;100047.84;;;11.73;96.15
58644;BME280;44411;49.994;8.660;2022-10-31T20:07:24;100047.97;;;11.68;96.42
58644;BME280;44411;49.994;8.660;2022-10-31T20:09:50;100050.25;;;11.61;95.17
58644;BME280;44411;49.994;8.660;2022-10-31T20:12:17;100056.81;;;11.60;96.48
58644;BME280;44411;49.994;8.660;2022-10-31T20:14:42;100065.03;;;11.60;96.40
58644;BME280;44411;49.994;8.660;2022-10-31T20:17:08;100068.34;;;11.57;96.38
58644;BME280;44411;49.994;8.660;2022-10-31T20:19:33;100068.75;;;11.50;96.63
58644;BME280;44411;49.994;8.660;2022-10-31T20:21:58;100061.22;;;11.42;96.74
58644;BME280;44411;49.994;8.660;2022-10-31T20:24:24;100079.22;;;11.43;96.32
58644;BME280;44411;49.994;8.660;2022-10-31T20:26:49;100069.25;;;11.33;96.84
58644;BME280;44411;49.994;8.660;2022-10-31T20:29:14;100062.19;;;11.32;96.81
58644;BME280;44411;49.994;8.660;2022-10-31T20:31:41;100068.22;;;11.29;98.06
58644;BME280;44411;49.994;8.660;2022-10-31T20:34:06;100068.81;;;11.26;97.21
58644;BME280;44411;49.994;8.660;2022-10-31T20:36:32;100066.69;;;11.23;96.82
58644;BME280;44411;49.994;8.660;2022-10-31T20:38:58;100068.53;;;11.27;97.76